sensor_id;sensor_type;location;lat;lon;timestamp;P1;durP1;ratioP1;P2;durP2;ratioP2
69188;SDS011;56302;52.322;5.926;2024-01-25T00:01:55;23.63;;;3.70;;
69188;SDS011;56302;52.322;5.926;2024-01-25T00:04:21;22.67;;;2.70;;
69188;SDS011;56302;52.322;5.926;2024-01-25T00:06:47;30.93;;;3.87;;
69188;SDS011;56302;52.322;5.926;2024-01-25T00:09:12;22.00;;;3.55;;
69188;SDS011;56302;52.322;5.926;2024-01-25T00:11:38;24.67;;;4.30;;
69188;SDS011;56302;52.322;5.926;2024-01-25T00:14:03;16.83;;;2.87;;
69188;SDS011;56302;52.322;5.926;2024-01-25T00:16:29;19.73;;;2.90;;
69188;SDS011;56302;52.322;5.926;2024-01-25T00:18:55;24.65;;;4.10;;
69188;SDS011;56302;52.322;5.926;2024-01-25T00:21:21;21.50;;;3.87;;
69188;SDS011;56302;52.322;5.926;2024-01-25T00:23:46;19.33;;;3.33;;
69188;SDS011;56302;52.322;5.926;2024-01-25T00:26:12;20.77;;;3.58;;
69188;SDS011;56302;52.322;5.926;2024-01-25T00:28:38;32.80;;;3.53;;
69188;SDS011;56302;52.322;5.926;2024-01-25T00:31:03;18.25;;;3.08;;
69188;SDS011;56302;52.322;5.926;2024-01-25T00:33:29;22.13;;;3.13;;
69188;SDS011;56302;52.322;5.926;2024-01-25T00:35:55;23.20;;;4.65;;
69188;SDS011;56302;52.322;5.926;2024-01-25T00:38:20;19.57;;;3.20;;
69188;SDS011;56302;52.322;5.926;2024-01-25T00:40:46;23.63;;;3.15;;
69188;SDS011;56302;52.322;5.926;2024-01-25T00:43:13;28.92;;;3.03;;
69188;SDS011;56302;52.322;5.926;2024-01-25T00:45:39;24.20;;;2.88;;
69188;SDS011;56302;52.322;5.926;2024-01-25T00:48:05;21.60;;;3.28;;
69188;SDS011;56302;52.322;5.926;2024-01-25T00:50:31;27.35;;;3.72;;
69188;SDS011;56302;52.322;5.926;2024-01-25T00:52:57;23.43;;;3.87;;
69188;SDS011;56302;52.322;5.926;2024-01-25T00:55:22;21.95;;;3.17;;
69188;SDS011;56302;52.322;5.926;2024-01-25T00:57:48;26.48;;;3.85;;
69188;SDS011;56302;52.322;5.926;2024-01-25T01:00:14;25.20;;;3.60;;
69188;SDS011;56302;52.322;5.926;2024-01-25T01:02:43;32.10;;;4.85;;
69188;SDS011;56302;52.322;5.926;2024-01-25T01:05:10;31.80;;;3.55;;
69188;SDS011;56302;52.322;5.926;2024-01-25T01:07:36;24.25;;;3.65;;
69188;SDS011;56302;52.322;5.926;2024-01-25T01:10:02;26.47;;;3.60;;
69188;SDS011;56302;52.322;5.926;2024-01-25T01:12:29;24.75;;;3.38;;
69188;SDS011;56302;52.322;5.926;2024-01-25T01:14:55;36.47;;;3.85;;
69188;SDS011;56302;52.322;5.926;2024-01-25T01:17:21;34.50;;;3.90;;
69188;SDS011;56302;52.322;5.926;2024-01-25T01:19:47;28.55;;;3.42;;
69188;SDS011;56302;52.322;5.926;2024-01-25T01:22:12;22.55;;;3.38;;
69188;SDS011;56302;52.322;5.926;2024-01-25T01:24:38;25.52;;;3.28;;
69188;SDS011;56302;52.322;5.926;2024-01-25T01:27:03;23.03;;;3.27;;
69188;SDS011;56302;52.322;5.926;2024-01-25T01:29:29;29.58;;;4.80;;
69188;SDS011;56302;52.322;5.926;2024-01-25T01:31:54;26.40;;;4.53;;
69188;SDS011;56302;52.322;5.926;2024-01-25T01:34:20;30.20;;;3.40;;
69188;SDS011;56302;52.322;5.926;2024-01-25T01:36:45;23.40;;;4.03;;
69188;SDS011;56302;52.322;5.926;2024-01-25T01:39:11;32.72;;;4.78;;
69188;SDS011;56302;52.322;5.926;2024-01-25T01:41:37;28.30;;;3.90;;
69188;SDS011;56302;52.322;5.926;2024-01-25T01:44:02;23.50;;;3.58;;
69188;SDS011;56302;52.322;5.926;2024-01-25T01:46:35;21.43;;;3.33;;
69188;SDS011;56302;52.322;5.926;2024-01-25T01:49:03;22.05;;;3.22;;
69188;SDS011;56302;52.322;5.926;2024-01-25T01:51:30;24.25;;;3.22;;
69188;SDS011;56302;52.322;5.926;2024-01-25T01:53:57;23.30;;;3.43;;
69188;SDS011;56302;52.322;5.926;2024-01-25T01:56:24;25.92;;;3.38;;
69188;SDS011;56302;52.322;5.926;2024-01-25T01:58:53;30.02;;;4.00;;
69188;SDS011;56302;52.322;5.926;2024-01-25T02:01:20;25.27;;;3.92;;
69188;SDS011;56302;52.322;5.926;2024-01-25T02:03:46;35.38;;;3.92;;
69188;SDS011;56302;52.322;5.926;2024-01-25T02:06:12;22.00;;;3.03;;
69188;SDS011;56302;52.322;5.926;2024-01-25T02:08:37;18.35;;;3.45;;
69188;SDS011;56302;52.322;5.926;2024-01-25T02:11:03;31.10;;;3.23;;
69188;SDS011;56302;52.322;5.926;2024-01-25T02:13:29;22.25;;;3.15;;
69188;SDS011;56302;52.322;5.926;2024-01-25T02:15:54;21.67;;;3.00;;
69188;SDS011;56302;52.322;5.926;2024-01-25T02:18:20;27.17;;;3.72;;
69188;SDS011;56302;52.322;5.926;2024-01-25T02:20:46;29.17;;;3.40;;
69188;SDS011;56302;52.322;5.926;2024-01-25T02:23:11;24.70;;;3.33;;
69188;SDS011;56302;52.322;5.926;2024-01-25T02:25:37;30.37;;;3.20;;
69188;SDS011;56302;52.322;5.926;2024-01-25T02:28:03;21.90;;;3.33;;
69188;SDS011;56302;52.322;5.926;2024-01-25T02:30:28;25.45;;;3.65;;
69188;SDS011;56302;52.322;5.926;2024-01-25T02:32:54;26.23;;;4.00;;
69188;SDS011;56302;52.322;5.926;2024-01-25T02:35:20;26.48;;;3.20;;
69188;SDS011;56302;52.322;5.926;2024-01-25T02:37:45;27.63;;;3.57;;
69188;SDS011;56302;52.322;5.926;2024-01-25T02:40:11;26.07;;;3.73;;
69188;SDS011;56302;52.322;5.926;2024-01-25T02:42:37;20.35;;;3.40;;
69188;SDS011;56302;52.322;5.926;2024-01-25T02:45:02;26.95;;;3.63;;
69188;SDS011;56302;52.322;5.926;2024-01-25T02:47:28;21.95;;;3.67;;
69188;SDS011;56302;52.322;5.926;2024-01-25T02:49:54;23.87;;;3.90;;
69188;SDS011;56302;52.322;5.926;2024-01-25T02:52:19;19.70;;;2.70;;
69188;SDS011;56302;52.322;5.926;2024-01-25T02:54:45;22.83;;;2.97;;
69188;SDS011;56302;52.322;5.926;2024-01-25T02:57:10;19.07;;;3.23;;
69188;SDS011;56302;52.322;5.926;2024-01-25T02:59:36;17.23;;;2.80;;
69188;SDS011;56302;52.322;5.926;2024-01-25T03:02:01;28.20;;;3.83;;
69188;SDS011;56302;52.322;5.926;2024-01-25T03:04:27;28.47;;;3.27;;
69188;SDS011;56302;52.322;5.926;2024-01-25T03:06:53;22.50;;;3.25;;
69188;SDS011;56302;52.322;5.926;2024-01-25T03:09:18;17.33;;;2.90;;
69188;SDS011;56302;52.322;5.926;2024-01-25T03:11:46;20.13;;;3.45;;
69188;SDS011;56302;52.322;5.926;2024-01-25T03:14:11;21.77;;;3.40;;
69188;SDS011;56302;52.322;5.926;2024-01-25T03:16:37;24.00;;;3.42;;
69188;SDS011;56302;52.322;5.926;2024-01-25T03:19:03;19.90;;;2.70;;
69188;SDS011;56302;52.322;5.926;2024-01-25T03:21:28;21.93;;;3.27;;
69188;SDS011;56302;52.322;5.926;2024-01-25T03:23:54;19.13;;;2.88;;
69188;SDS011;56302;52.322;5.926;2024-01-25T03:26:19;24.73;;;3.53;;
69188;SDS011;56302;52.322;5.926;2024-01-25T03:28:45;24.50;;;2.83;;
69188;SDS011;56302;52.322;5.926;2024-01-25T03:31:11;25.50;;;3.00;;
69188;SDS011;56302;52.322;5.926;2024-01-25T03:33:36;25.30;;;3.57;;
69188;SDS011;56302;52.322;5.926;2024-01-25T03:36:02;25.40;;;3.57;;
69188;SDS011;56302;52.322;5.926;2024-01-25T03:38:29;19.52;;;3.60;;
69188;SDS011;56302;52.322;5.926;2024-01-25T03:40:54;20.60;;;3.10;;
69188;SDS011;56302;52.322;5.926;2024-01-25T03:43:21;27.70;;;3.40;;
69188;SDS011;56302;52.322;5.926;2024-01-25T03:45:48;26.15;;;3.08;;
69188;SDS011;56302;52.322;5.926;2024-01-25T03:48:14;19.00;;;2.88;;
69188;SDS011;56302;52.322;5.926;2024-01-25T03:50:40;19.98;;;3.15;;
69188;SDS011;56302;52.322;5.926;2024-01-25T03:53:06;18.47;;;2.73;;
69188;SDS011;56302;52.322;5.926;2024-01-25T03:55:32;23.45;;;3.83;;
69188;SDS011;56302;52.322;5.926;2024-01-25T03:57:57;28.77;;;3.40;;
69188;SDS011;56302;52.322;5.926;2024-01-25T04:00:23;24.77;;;3.50;;
69188;SDS011;56302;52.322;5.926;2024-01-25T04:02:49;24.60;;;3.47;;
69188;SDS011;56302;52.322;5.926;2024-01-25T04:05:15;18.50;;;2.77;;
69188;SDS011;56302;52.322;5.926;2024-01-25T04:07:41;21.95;;;3.00;;
69188;SDS011;56302;52.322;5.926;2024-01-25T04:10:07;26.23;;;3.93;;
69188;SDS011;56302;52.322;5.926;2024-01-25T04:12:32;18.83;;;3.28;;
69188;SDS011;56302;52.322;5.926;2024-01-25T04:14:58;23.40;;;3.70;;
69188;SDS011;56302;52.322;5.926;2024-01-25T04:17:24;26.13;;;2.87;;
69188;SDS011;56302;52.322;5.926;2024-01-25T04:19:49;23.90;;;3.40;;
69188;SDS011;56302;52.322;5.926;2024-01-25T04:22:15;24.20;;;4.00;;
69188;SDS011;56302;52.322;5.926;2024-01-25T04:24:40;18.35;;;2.67;;
69188;SDS011;56302;52.322;5.926;2024-01-25T04:27:06;24.87;;;3.00;;
69188;SDS011;56302;52.322;5.926;2024-01-25T04:29:32;15.40;;;2.40;;
69188;SDS011;56302;52.322;5.926;2024-01-25T04:31:57;26.63;;;3.83;;
69188;SDS011;56302;52.322;5.926;2024-01-25T04:34:23;14.03;;;3.30;;
69188;SDS011;56302;52.322;5.926;2024-01-25T04:36:49;27.13;;;3.72;;
69188;SDS011;56302;52.322;5.926;2024-01-25T04:39:14;20.13;;;3.10;;
69188;SDS011;56302;52.322;5.926;2024-01-25T04:41:40;21.83;;;2.97;;
69188;SDS011;56302;52.322;5.926;2024-01-25T04:44:05;24.60;;;3.45;;
69188;SDS011;56302;52.322;5.926;2024-01-25T04:46:31;19.20;;;2.73;;
69188;SDS011;56302;52.322;5.926;2024-01-25T04:49:02;18.88;;;2.60;;
69188;SDS011;56302;52.322;5.926;2024-01-25T04:51:27;16.83;;;2.90;;
69188;SDS011;56302;52.322;5.926;2024-01-25T04:53:53;20.23;;;3.13;;
69188;SDS011;56302;52.322;5.926;2024-01-25T04:56:19;20.73;;;2.90;;
69188;SDS011;56302;52.322;5.926;2024-01-25T04:58:44;22.67;;;3.60;;
69188;SDS011;56302;52.322;5.926;2024-01-25T05:01:10;18.85;;;2.92;;
69188;SDS011;56302;52.322;5.926;2024-01-25T05:03:36;17.95;;;2.67;;
69188;SDS011;56302;52.322;5.926;2024-01-25T05:06:02;18.03;;;2.90;;
69188;SDS011;56302;52.322;5.926;2024-01-25T05:08:28;16.95;;;2.45;;
69188;SDS011;56302;52.322;5.926;2024-01-25T05:10:54;19.60;;;3.20;;
69188;SDS011;56302;52.322;5.926;2024-01-25T05:13:19;24.70;;;2.97;;
69188;SDS011;56302;52.322;5.926;2024-01-25T05:15:45;14.63;;;3.23;;
69188;SDS011;56302;52.322;5.926;2024-01-25T05:18:10;18.90;;;2.88;;
69188;SDS011;56302;52.322;5.926;2024-01-25T05:20:36;13.38;;;2.60;;
69188;SDS011;56302;52.322;5.926;2024-01-25T05:23:02;19.30;;;2.80;;
69188;SDS011;56302;52.322;5.926;2024-01-25T05:25:29;17.67;;;2.90;;
69188;SDS011;56302;52.322;5.926;2024-01-25T05:27:55;24.85;;;3.63;;
69188;SDS011;56302;52.322;5.926;2024-01-25T05:30:21;19.77;;;3.00;;
69188;SDS011;56302;52.322;5.926;2024-01-25T05:32:47;19.35;;;2.97;;
69188;SDS011;56302;52.322;5.926;2024-01-25T05:35:16;15.95;;;2.53;;
69188;SDS011;56302;52.322;5.926;2024-01-25T05:37:42;14.87;;;3.20;;
69188;SDS011;56302;52.322;5.926;2024-01-25T05:40:08;16.38;;;2.50;;
69188;SDS011;56302;52.322;5.926;2024-01-25T05:42:34;16.10;;;2.55;;
69188;SDS011;56302;52.322;5.926;2024-01-25T05:45:01;17.73;;;3.38;;
69188;SDS011;56302;52.322;5.926;2024-01-25T05:47:28;20.60;;;2.80;;
69188;SDS011;56302;52.322;5.926;2024-01-25T05:49:53;22.67;;;3.37;;
69188;SDS011;56302;52.322;5.926;2024-01-25T05:52:20;23.83;;;3.03;;
69188;SDS011;56302;52.322;5.926;2024-01-25T05:54:46;21.70;;;3.28;;
69188;SDS011;56302;52.322;5.926;2024-01-25T05:57:12;18.00;;;2.63;;
69188;SDS011;56302;52.322;5.926;2024-01-25T05:59:38;23.23;;;3.60;;
69188;SDS011;56302;52.322;5.926;2024-01-25T06:02:03;17.48;;;2.63;;
69188;SDS011;56302;52.322;5.926;2024-01-25T06:04:30;19.73;;;3.13;;
69188;SDS011;56302;52.322;5.926;2024-01-25T06:06:56;18.67;;;2.90;;
69188;SDS011;56302;52.322;5.926;2024-01-25T06:09:22;30.33;;;3.53;;
69188;SDS011;56302;52.322;5.926;2024-01-25T06:11:49;32.38;;;3.67;;
69188;SDS011;56302;52.322;5.926;2024-01-25T06:14:15;24.95;;;2.97;;
69188;SDS011;56302;52.322;5.926;2024-01-25T06:16:40;23.20;;;3.60;;
69188;SDS011;56302;52.322;5.926;2024-01-25T06:19:06;25.63;;;3.27;;
69188;SDS011;56302;52.322;5.926;2024-01-25T06:21:32;25.67;;;2.75;;
69188;SDS011;56302;52.322;5.926;2024-01-25T06:24:00;26.25;;;3.47;;
69188;SDS011;56302;52.322;5.926;2024-01-25T06:26:29;25.60;;;3.13;;
69188;SDS011;56302;52.322;5.926;2024-01-25T06:28:55;16.38;;;3.13;;
69188;SDS011;56302;52.322;5.926;2024-01-25T06:31:24;20.38;;;3.17;;
69188;SDS011;56302;52.322;5.926;2024-01-25T06:33:50;21.05;;;3.60;;
69188;SDS011;56302;52.322;5.926;2024-01-25T06:36:17;27.52;;;3.63;;
69188;SDS011;56302;52.322;5.926;2024-01-25T06:38:43;17.50;;;3.47;;
69188;SDS011;56302;52.322;5.926;2024-01-25T06:41:09;20.58;;;2.97;;
69188;SDS011;56302;52.322;5.926;2024-01-25T06:43:35;23.47;;;3.43;;
69188;SDS011;56302;52.322;5.926;2024-01-25T06:46:00;24.92;;;4.38;;
69188;SDS011;56302;52.322;5.926;2024-01-25T06:48:26;27.77;;;3.33;;
69188;SDS011;56302;52.322;5.926;2024-01-25T06:50:52;20.15;;;3.13;;
69188;SDS011;56302;52.322;5.926;2024-01-25T06:53:18;21.73;;;3.97;;
69188;SDS011;56302;52.322;5.926;2024-01-25T06:55:44;28.98;;;4.00;;
69188;SDS011;56302;52.322;5.926;2024-01-25T06:58:10;20.37;;;3.43;;
69188;SDS011;56302;52.322;5.926;2024-01-25T07:00:35;27.15;;;3.47;;
69188;SDS011;56302;52.322;5.926;2024-01-25T07:03:03;27.20;;;3.80;;
69188;SDS011;56302;52.322;5.926;2024-01-25T07:05:29;27.15;;;3.50;;
69188;SDS011;56302;52.322;5.926;2024-01-25T07:07:58;21.05;;;3.65;;
69188;SDS011;56302;52.322;5.926;2024-01-25T07:10:24;19.85;;;3.15;;
69188;SDS011;56302;52.322;5.926;2024-01-25T07:12:49;27.77;;;3.10;;
69188;SDS011;56302;52.322;5.926;2024-01-25T07:15:16;21.38;;;3.00;;
69188;SDS011;56302;52.322;5.926;2024-01-25T07:17:42;24.43;;;2.57;;
69188;SDS011;56302;52.322;5.926;2024-01-25T07:20:08;23.23;;;3.20;;
69188;SDS011;56302;52.322;5.926;2024-01-25T07:22:33;21.33;;;3.25;;
69188;SDS011;56302;52.322;5.926;2024-01-25T07:24:59;21.30;;;3.33;;
69188;SDS011;56302;52.322;5.926;2024-01-25T07:27:25;29.75;;;3.47;;
69188;SDS011;56302;52.322;5.926;2024-01-25T07:29:50;23.90;;;3.67;;
69188;SDS011;56302;52.322;5.926;2024-01-25T07:32:16;22.33;;;3.47;;
69188;SDS011;56302;52.322;5.926;2024-01-25T07:34:43;26.23;;;3.40;;
69188;SDS011;56302;52.322;5.926;2024-01-25T07:37:09;22.05;;;3.35;;
69188;SDS011;56302;52.322;5.926;2024-01-25T07:39:36;21.40;;;3.08;;
69188;SDS011;56302;52.322;5.926;2024-01-25T07:42:03;26.73;;;4.88;;
69188;SDS011;56302;52.322;5.926;2024-01-25T07:44:28;20.00;;;3.10;;
69188;SDS011;56302;52.322;5.926;2024-01-25T07:46:54;29.50;;;4.50;;
69188;SDS011;56302;52.322;5.926;2024-01-25T07:49:19;27.23;;;3.87;;
69188;SDS011;56302;52.322;5.926;2024-01-25T07:51:45;22.08;;;2.97;;
69188;SDS011;56302;52.322;5.926;2024-01-25T07:54:11;20.40;;;3.20;;
69188;SDS011;56302;52.322;5.926;2024-01-25T07:56:37;25.35;;;3.85;;
69188;SDS011;56302;52.322;5.926;2024-01-25T07:59:03;23.63;;;3.37;;
69188;SDS011;56302;52.322;5.926;2024-01-25T08:01:28;24.10;;;3.58;;
69188;SDS011;56302;52.322;5.926;2024-01-25T08:03:54;25.90;;;3.40;;
69188;SDS011;56302;52.322;5.926;2024-01-25T08:06:20;21.50;;;2.83;;
69188;SDS011;56302;52.322;5.926;2024-01-25T08:08:46;24.73;;;3.70;;
69188;SDS011;56302;52.322;5.926;2024-01-25T08:11:12;25.87;;;3.57;;
69188;SDS011;56302;52.322;5.926;2024-01-25T08:13:37;16.97;;;3.50;;
69188;SDS011;56302;52.322;5.926;2024-01-25T08:16:03;23.60;;;4.25;;
69188;SDS011;56302;52.322;5.926;2024-01-25T08:18:29;29.90;;;3.65;;
69188;SDS011;56302;52.322;5.926;2024-01-25T08:20:55;24.20;;;3.97;;
69188;SDS011;56302;52.322;5.926;2024-01-25T08:23:21;24.15;;;3.90;;
69188;SDS011;56302;52.322;5.926;2024-01-25T08:25:46;27.73;;;3.97;;
69188;SDS011;56302;52.322;5.926;2024-01-25T08:28:12;30.27;;;3.65;;
69188;SDS011;56302;52.322;5.926;2024-01-25T08:30:37;32.92;;;4.30;;
69188;SDS011;56302;52.322;5.926;2024-01-25T08:33:03;28.13;;;3.67;;
69188;SDS011;56302;52.322;5.926;2024-01-25T08:35:29;23.30;;;4.15;;
69188;SDS011;56302;52.322;5.926;2024-01-25T08:37:58;27.77;;;3.50;;
69188;SDS011;56302;52.322;5.926;2024-01-25T08:40:23;24.47;;;3.70;;
69188;SDS011;56302;52.322;5.926;2024-01-25T08:42:49;31.60;;;5.15;;
69188;SDS011;56302;52.322;5.926;2024-01-25T08:45:14;25.38;;;4.80;;
69188;SDS011;56302;52.322;5.926;2024-01-25T08:47:40;33.60;;;5.77;;
69188;SDS011;56302;52.322;5.926;2024-01-25T08:50:06;27.25;;;4.60;;
69188;SDS011;56302;52.322;5.926;2024-01-25T08:52:35;24.05;;;4.47;;
69188;SDS011;56302;52.322;5.926;2024-01-25T08:55:02;32.30;;;4.78;;
69188;SDS011;56302;52.322;5.926;2024-01-25T08:57:31;30.58;;;4.40;;
69188;SDS011;56302;52.322;5.926;2024-01-25T08:59:56;22.67;;;3.70;;
69188;SDS011;56302;52.322;5.926;2024-01-25T09:02:23;29.65;;;4.50;;
69188;SDS011;56302;52.322;5.926;2024-01-25T09:04:54;26.10;;;4.00;;
69188;SDS011;56302;52.322;5.926;2024-01-25T09:07:20;32.33;;;6.53;;
69188;SDS011;56302;52.322;5.926;2024-01-25T09:09:46;24.23;;;4.18;;
69188;SDS011;56302;52.322;5.926;2024-01-25T09:12:11;34.38;;;5.53;;
69188;SDS011;56302;52.322;5.926;2024-01-25T09:14:38;31.23;;;4.60;;
69188;SDS011;56302;52.322;5.926;2024-01-25T09:17:04;31.83;;;5.43;;
69188;SDS011;56302;52.322;5.926;2024-01-25T09:19:30;27.30;;;4.13;;
69188;SDS011;56302;52.322;5.926;2024-01-25T09:21:56;32.83;;;4.68;;
69188;SDS011;56302;52.322;5.926;2024-01-25T09:24:25;27.40;;;4.65;;
69188;SDS011;56302;52.322;5.926;2024-01-25T09:26:50;24.13;;;4.60;;
69188;SDS011;56302;52.322;5.926;2024-01-25T09:29:16;34.70;;;5.40;;
69188;SDS011;56302;52.322;5.926;2024-01-25T09:31:42;29.87;;;5.30;;
69188;SDS011;56302;52.322;5.926;2024-01-25T09:34:07;30.77;;;5.10;;
69188;SDS011;56302;52.322;5.926;2024-01-25T09:36:33;27.70;;;5.17;;
69188;SDS011;56302;52.322;5.926;2024-01-25T09:38:58;32.83;;;5.77;;
69188;SDS011;56302;52.322;5.926;2024-01-25T09:41:24;24.08;;;4.47;;
69188;SDS011;56302;52.322;5.926;2024-01-25T09:43:49;26.58;;;4.45;;
69188;SDS011;56302;52.322;5.926;2024-01-25T09:46:15;29.87;;;4.97;;
69188;SDS011;56302;52.322;5.926;2024-01-25T09:48:41;27.45;;;5.00;;
69188;SDS011;56302;52.322;5.926;2024-01-25T09:51:09;27.70;;;5.40;;
69188;SDS011;56302;52.322;5.926;2024-01-25T09:53:36;26.70;;;5.05;;
69188;SDS011;56302;52.322;5.926;2024-01-25T09:56:08;35.20;;;4.90;;
69188;SDS011;56302;52.322;5.926;2024-01-25T09:58:39;30.73;;;5.03;;
69188;SDS011;56302;52.322;5.926;2024-01-25T10:01:10;30.38;;;5.53;;
69188;SDS011;56302;52.322;5.926;2024-01-25T10:03:46;27.87;;;5.40;;
69188;SDS011;56302;52.322;5.926;2024-01-25T10:06:12;31.33;;;5.57;;
69188;SDS011;56302;52.322;5.926;2024-01-25T10:08:39;31.48;;;5.25;;
69188;SDS011;56302;52.322;5.926;2024-01-25T10:11:05;23.70;;;6.20;;
69188;SDS011;56302;52.322;5.926;2024-01-25T10:13:31;30.67;;;5.67;;
69188;SDS011;56302;52.322;5.926;2024-01-25T10:15:57;37.25;;;7.53;;
69188;SDS011;56302;52.322;5.926;2024-01-25T10:18:23;28.63;;;5.70;;
69188;SDS011;56302;52.322;5.926;2024-01-25T10:20:55;21.73;;;5.03;;
69188;SDS011;56302;52.322;5.926;2024-01-25T10:23:20;26.27;;;5.28;;
69188;SDS011;56302;52.322;5.926;2024-01-25T10:25:47;23.83;;;5.97;;
69188;SDS011;56302;52.322;5.926;2024-01-25T10:28:12;20.95;;;5.35;;
69188;SDS011;56302;52.322;5.926;2024-01-25T10:30:38;29.43;;;5.03;;
69188;SDS011;56302;52.322;5.926;2024-01-25T10:33:04;28.60;;;6.07;;
69188;SDS011;56302;52.322;5.926;2024-01-25T10:35:30;32.20;;;5.28;;
69188;SDS011;56302;52.322;5.926;2024-01-25T10:37:56;34.40;;;5.68;;
69188;SDS011;56302;52.322;5.926;2024-01-25T10:40:22;31.55;;;5.90;;
69188;SDS011;56302;52.322;5.926;2024-01-25T10:42:49;30.90;;;4.93;;
69188;SDS011;56302;52.322;5.926;2024-01-25T10:45:15;25.70;;;4.90;;
69188;SDS011;56302;52.322;5.926;2024-01-25T10:47:40;25.15;;;5.43;;
69188;SDS011;56302;52.322;5.926;2024-01-25T10:50:09;27.40;;;5.23;;
69188;SDS011;56302;52.322;5.926;2024-01-25T10:52:38;27.95;;;6.20;;
69188;SDS011;56302;52.322;5.926;2024-01-25T10:55:05;31.33;;;5.93;;
69188;SDS011;56302;52.322;5.926;2024-01-25T10:57:36;32.85;;;4.93;;
69188;SDS011;56302;52.322;5.926;2024-01-25T11:00:09;32.33;;;5.10;;
69188;SDS011;56302;52.322;5.926;2024-01-25T11:02:36;31.35;;;5.70;;
69188;SDS011;56302;52.322;5.926;2024-01-25T11:08:16;27.05;;;4.60;;
69188;SDS011;56302;52.322;5.926;2024-01-25T11:10:27;28.50;;;4.72;;
69188;SDS011;56302;52.322;5.926;2024-01-25T11:13:00;29.47;;;5.03;;
69188;SDS011;56302;52.322;5.926;2024-01-25T11:15:32;27.80;;;4.45;;
69188;SDS011;56302;52.322;5.926;2024-01-25T11:17:59;33.67;;;4.93;;
69188;SDS011;56302;52.322;5.926;2024-01-25T11:20:26;19.52;;;4.30;;
69188;SDS011;56302;52.322;5.926;2024-01-25T11:22:55;27.80;;;5.20;;
69188;SDS011;56302;52.322;5.926;2024-01-25T11:25:34;26.30;;;4.10;;
69188;SDS011;56302;52.322;5.926;2024-01-25T11:28:01;27.52;;;4.63;;
69188;SDS011;56302;52.322;5.926;2024-01-25T11:30:28;30.67;;;5.70;;
69188;SDS011;56302;52.322;5.926;2024-01-25T11:32:55;29.33;;;4.32;;
69188;SDS011;56302;52.322;5.926;2024-01-25T11:35:21;21.23;;;3.95;;
69188;SDS011;56302;52.322;5.926;2024-01-25T11:37:47;24.30;;;4.97;;
69188;SDS011;56302;52.322;5.926;2024-01-25T11:40:15;24.98;;;4.90;;
69188;SDS011;56302;52.322;5.926;2024-01-25T11:42:41;23.30;;;4.45;;
69188;SDS011;56302;52.322;5.926;2024-01-25T11:45:08;22.13;;;3.77;;
69188;SDS011;56302;52.322;5.926;2024-01-25T11:47:36;27.75;;;4.32;;
69188;SDS011;56302;52.322;5.926;2024-01-25T11:50:03;30.33;;;4.55;;
69188;SDS011;56302;52.322;5.926;2024-01-25T11:52:29;26.92;;;4.70;;
69188;SDS011;56302;52.322;5.926;2024-01-25T11:54:57;30.42;;;4.55;;
69188;SDS011;56302;52.322;5.926;2024-01-25T11:57:23;23.83;;;4.57;;
69188;SDS011;56302;52.322;5.926;2024-01-25T11:59:49;22.75;;;4.30;;
69188;SDS011;56302;52.322;5.926;2024-01-25T12:02:15;32.30;;;4.95;;
69188;SDS011;56302;52.322;5.926;2024-01-25T12:04:41;25.03;;;4.00;;
69188;SDS011;56302;52.322;5.926;2024-01-25T12:07:07;31.48;;;4.40;;
69188;SDS011;56302;52.322;5.926;2024-01-25T12:09:33;22.13;;;3.42;;
69188;SDS011;56302;52.322;5.926;2024-01-25T12:12:00;22.80;;;4.20;;
69188;SDS011;56302;52.322;5.926;2024-01-25T12:14:26;22.13;;;3.67;;
69188;SDS011;56302;52.322;5.926;2024-01-25T12:16:54;35.13;;;4.78;;
69188;SDS011;56302;52.322;5.926;2024-01-25T12:19:21;29.83;;;4.17;;
69188;SDS011;56302;52.322;5.926;2024-01-25T12:21:46;20.85;;;4.25;;
69188;SDS011;56302;52.322;5.926;2024-01-25T12:24:12;25.30;;;4.55;;
69188;SDS011;56302;52.322;5.926;2024-01-25T12:26:38;24.57;;;4.33;;
69188;SDS011;56302;52.322;5.926;2024-01-25T12:29:06;24.50;;;3.97;;
69188;SDS011;56302;52.322;5.926;2024-01-25T12:31:33;21.80;;;4.50;;
69188;SDS011;56302;52.322;5.926;2024-01-25T12:33:59;31.55;;;4.80;;
69188;SDS011;56302;52.322;5.926;2024-01-25T12:36:25;26.45;;;3.90;;
69188;SDS011;56302;52.322;5.926;2024-01-25T12:38:51;22.77;;;4.33;;
69188;SDS011;56302;52.322;5.926;2024-01-25T12:41:17;21.33;;;4.33;;
69188;SDS011;56302;52.322;5.926;2024-01-25T12:43:42;25.58;;;4.47;;
69188;SDS011;56302;52.322;5.926;2024-01-25T12:46:08;31.00;;;5.27;;
69188;SDS011;56302;52.322;5.926;2024-01-25T12:48:34;27.08;;;4.55;;
69188;SDS011;56302;52.322;5.926;2024-01-25T12:50:59;27.33;;;4.57;;
69188;SDS011;56302;52.322;5.926;2024-01-25T12:53:26;28.60;;;5.28;;
69188;SDS011;56302;52.322;5.926;2024-01-25T12:55:52;31.42;;;4.85;;
69188;SDS011;56302;52.322;5.926;2024-01-25T12:58:17;26.90;;;4.73;;
69188;SDS011;56302;52.322;5.926;2024-01-25T13:00:43;35.78;;;5.30;;
69188;SDS011;56302;52.322;5.926;2024-01-25T13:03:10;31.25;;;5.45;;
69188;SDS011;56302;52.322;5.926;2024-01-25T13:05:36;28.27;;;4.40;;
69188;SDS011;56302;52.322;5.926;2024-01-25T13:08:04;28.90;;;4.43;;
69188;SDS011;56302;52.322;5.926;2024-01-25T13:10:30;26.13;;;4.15;;
69188;SDS011;56302;52.322;5.926;2024-01-25T13:12:56;25.70;;;5.03;;
69188;SDS011;56302;52.322;5.926;2024-01-25T13:15:22;29.98;;;4.97;;
69188;SDS011;56302;52.322;5.926;2024-01-25T13:17:48;21.73;;;4.68;;
69188;SDS011;56302;52.322;5.926;2024-01-25T13:20:14;21.08;;;4.20;;
69188;SDS011;56302;52.322;5.926;2024-01-25T13:22:40;21.15;;;3.60;;
69188;SDS011;56302;52.322;5.926;2024-01-25T13:25:06;23.17;;;4.23;;
69188;SDS011;56302;52.322;5.926;2024-01-25T13:27:32;24.30;;;3.92;;
69188;SDS011;56302;52.322;5.926;2024-01-25T13:29:57;18.95;;;3.90;;
69188;SDS011;56302;52.322;5.926;2024-01-25T13:32:23;20.93;;;3.00;;
69188;SDS011;56302;52.322;5.926;2024-01-25T13:34:49;25.70;;;3.42;;
69188;SDS011;56302;52.322;5.926;2024-01-25T13:37:15;19.70;;;3.20;;
69188;SDS011;56302;52.322;5.926;2024-01-25T13:39:40;26.80;;;3.78;;
69188;SDS011;56302;52.322;5.926;2024-01-25T13:42:06;28.43;;;4.33;;
69188;SDS011;56302;52.322;5.926;2024-01-25T13:44:31;23.90;;;4.23;;
69188;SDS011;56302;52.322;5.926;2024-01-25T13:46:57;26.55;;;3.70;;
69188;SDS011;56302;52.322;5.926;2024-01-25T13:49:24;22.30;;;3.20;;
69188;SDS011;56302;52.322;5.926;2024-01-25T13:51:49;17.75;;;2.90;;
69188;SDS011;56302;52.322;5.926;2024-01-25T13:54:15;16.53;;;3.30;;
69188;SDS011;56302;52.322;5.926;2024-01-25T13:56:40;26.17;;;3.40;;
69188;SDS011;56302;52.322;5.926;2024-01-25T13:59:06;22.17;;;3.50;;
69188;SDS011;56302;52.322;5.926;2024-01-25T14:01:32;23.63;;;4.30;;
69188;SDS011;56302;52.322;5.926;2024-01-25T14:03:58;25.75;;;3.65;;
69188;SDS011;56302;52.322;5.926;2024-01-25T14:06:24;24.10;;;3.30;;
69188;SDS011;56302;52.322;5.926;2024-01-25T14:08:49;27.17;;;3.83;;
69188;SDS011;56302;52.322;5.926;2024-01-25T14:11:15;21.17;;;3.53;;
69188;SDS011;56302;52.322;5.926;2024-01-25T14:13:41;25.02;;;3.45;;
69188;SDS011;56302;52.322;5.926;2024-01-25T14:16:07;25.25;;;4.30;;
69188;SDS011;56302;52.322;5.926;2024-01-25T14:18:38;23.80;;;4.00;;
69188;SDS011;56302;52.322;5.926;2024-01-25T14:21:05;18.60;;;3.97;;
69188;SDS011;56302;52.322;5.926;2024-01-25T14:23:31;24.53;;;3.80;;
69188;SDS011;56302;52.322;5.926;2024-01-25T14:25:57;24.00;;;3.67;;
69188;SDS011;56302;52.322;5.926;2024-01-25T14:28:22;20.70;;;3.73;;
69188;SDS011;56302;52.322;5.926;2024-01-25T14:30:48;20.52;;;4.03;;